sensor_id;sensor_type;location;lat;lon;timestamp;P1;durP1;ratioP1;P2;durP2;ratioP2
21827;SDS011;11076;47.942;11.804;2022-07-05T00:04:40;2.00;;;1.80;;
21827;SDS011;11076;47.942;11.804;2022-07-05T00:09:47;2.60;;;1.85;;
21827;SDS011;11076;47.942;11.804;2022-07-05T00:14:51;4.55;;;2.05;;
21827;SDS011;11076;47.942;11.804;2022-07-05T00:19:54;3.22;;;1.77;;
21827;SDS011;11076;47.942;11.804;2022-07-05T00:24:56;3.85;;;2.00;;
21827;SDS011;11076;47.942;11.804;2022-07-05T00:29:59;2.38;;;1.75;;
21827;SDS011;11076;47.942;11.804;2022-07-05T00:35:01;1.75;;;1.65;;
21827;SDS011;11076;47.942;11.804;2022-07-05T00:40:05;2.58;;;1.40;;
21827;SDS011;11076;47.942;11.804;2022-07-05T00:45:09;3.63;;;2.00;;
21827;SDS011;11076;47.942;11.804;2022-07-05T00:50:12;2.03;;;1.70;;
21827;SDS011;11076;47.942;11.804;2022-07-05T00:55:15;2.05;;;1.55;;
21827;SDS011;11076;47.942;11.804;2022-07-05T01:00:18;4.65;;;1.67;;
21827;SDS011;11076;47.942;11.804;2022-07-05T01:05:21;3.00;;;1.55;;
21827;SDS011;11076;47.942;11.804;2022-07-05T01:10:24;1.55;;;1.30;;
21827;SDS011;11076;47.942;11.804;2022-07-05T01:15:26;2.00;;;1.50;;
21827;SDS011;11076;47.942;11.804;2022-07-05T01:20:29;1.08;;;1.08;;
21827;SDS011;11076;47.942;11.804;2022-07-05T01:25:32;3.33;;;1.25;;
21827;SDS011;11076;47.942;11.804;2022-07-05T01:30:35;1.40;;;1.00;;
21827;SDS011;11076;47.942;11.804;2022-07-05T01:35:38;3.08;;;1.08;;
21827;SDS011;11076;47.942;11.804;2022-07-05T01:40:40;2.05;;;1.20;;
21827;SDS011;11076;47.942;11.804;2022-07-05T01:45:44;4.35;;;1.30;;
21827;SDS011;11076;47.942;11.804;2022-07-05T01:50:50;1.38;;;1.27;;
21827;SDS011;11076;47.942;11.804;2022-07-05T01:55:55;2.75;;;1.33;;
21827;SDS011;11076;47.942;11.804;2022-07-05T02:00:59;1.48;;;1.38;;
21827;SDS011;11076;47.942;11.804;2022-07-05T02:06:02;1.33;;;1.13;;
21827;SDS011;11076;47.942;11.804;2022-07-05T02:11:05;3.78;;;1.60;;
21827;SDS011;11076;47.942;11.804;2022-07-05T02:16:07;2.83;;;1.70;;
21827;SDS011;11076;47.942;11.804;2022-07-05T02:21:10;2.08;;;1.40;;
21827;SDS011;11076;47.942;11.804;2022-07-05T02:26:13;3.97;;;1.77;;
21827;SDS011;11076;47.942;11.804;2022-07-05T02:31:16;2.03;;;1.70;;
21827;SDS011;11076;47.942;11.804;2022-07-05T02:36:25;4.93;;;1.90;;
21827;SDS011;11076;47.942;11.804;2022-07-05T02:41:28;3.15;;;2.00;;
21827;SDS011;11076;47.942;11.804;2022-07-05T02:46:30;4.07;;;1.95;;
21827;SDS011;11076;47.942;11.804;2022-07-05T02:51:36;3.78;;;2.10;;
21827;SDS011;11076;47.942;11.804;2022-07-05T02:56:42;2.38;;;1.75;;
21827;SDS011;11076;47.942;11.804;2022-07-05T03:01:47;1.70;;;1.60;;
21827;SDS011;11076;47.942;11.804;2022-07-05T03:06:51;2.22;;;2.03;;
21827;SDS011;11076;47.942;11.804;2022-07-05T03:11:58;2.83;;;2.15;;
21827;SDS011;11076;47.942;11.804;2022-07-05T03:17:01;1.90;;;1.80;;
21827;SDS011;11076;47.942;11.804;2022-07-05T03:22:03;3.35;;;2.08;;
21827;SDS011;11076;47.942;11.804;2022-07-05T03:27:08;4.55;;;2.00;;
21827;SDS011;11076;47.942;11.804;2022-07-05T03:32:13;3.08;;;1.92;;
21827;SDS011;11076;47.942;11.804;2022-07-05T03:37:15;2.10;;;1.90;;
21827;SDS011;11076;47.942;11.804;2022-07-05T03:42:18;4.05;;;1.77;;
21827;SDS011;11076;47.942;11.804;2022-07-05T03:47:21;1.90;;;1.60;;
21827;SDS011;11076;47.942;11.804;2022-07-05T03:52:24;2.63;;;1.70;;
21827;SDS011;11076;47.942;11.804;2022-07-05T03:57:27;1.35;;;1.25;;
21827;SDS011;11076;47.942;11.804;2022-07-05T04:02:30;2.65;;;1.25;;
21827;SDS011;11076;47.942;11.804;2022-07-05T04:07:33;1.98;;;1.33;;
21827;SDS011;11076;47.942;11.804;2022-07-05T04:12:37;0.95;;;0.90;;
21827;SDS011;11076;47.942;11.804;2022-07-05T04:17:52;2.50;;;1.02;;
21827;SDS011;11076;47.942;11.804;2022-07-05T04:22:58;1.73;;;1.00;;
21827;SDS011;11076;47.942;11.804;2022-07-05T04:28:01;1.50;;;1.40;;
21827;SDS011;11076;47.942;11.804;2022-07-05T04:33:06;3.25;;;1.10;;
21827;SDS011;11076;47.942;11.804;2022-07-05T04:38:09;1.73;;;1.00;;
21827;SDS011;11076;47.942;11.804;2022-07-05T04:43:13;1.67;;;0.90;;
21827;SDS011;11076;47.942;11.804;2022-07-05T04:48:16;2.47;;;1.17;;
21827;SDS011;11076;47.942;11.804;2022-07-05T04:53:18;2.97;;;0.95;;
21827;SDS011;11076;47.942;11.804;2022-07-05T04:58:20;0.90;;;0.50;;
21827;SDS011;11076;47.942;11.804;2022-07-05T05:03:23;1.02;;;0.75;;
21827;SDS011;11076;47.942;11.804;2022-07-05T05:08:25;3.30;;;0.90;;
21827;SDS011;11076;47.942;11.804;2022-07-05T05:13:28;5.47;;;1.02;;
21827;SDS011;11076;47.942;11.804;2022-07-05T05:18:30;2.15;;;0.75;;
21827;SDS011;11076;47.942;11.804;2022-07-05T05:23:33;2.42;;;1.00;;
21827;SDS011;11076;47.942;11.804;2022-07-05T05:28:35;3.83;;;0.80;;
21827;SDS011;11076;47.942;11.804;2022-07-05T05:33:37;3.70;;;1.02;;
21827;SDS011;11076;47.942;11.804;2022-07-05T05:38:40;1.33;;;0.75;;
21827;SDS011;11076;47.942;11.804;2022-07-05T05:43:42;1.33;;;0.82;;
21827;SDS011;11076;47.942;11.804;2022-07-05T05:48:45;2.45;;;0.80;;
21827;SDS011;11076;47.942;11.804;2022-07-05T05:53:47;3.22;;;1.15;;
21827;SDS011;11076;47.942;11.804;2022-07-05T05:58:49;2.78;;;0.85;;
21827;SDS011;11076;47.942;11.804;2022-07-05T06:03:52;13.10;;;0.82;;
21827;SDS011;11076;47.942;11.804;2022-07-05T06:08:54;2.60;;;0.77;;
21827;SDS011;11076;47.942;11.804;2022-07-05T06:13:56;5.07;;;1.05;;
21827;SDS011;11076;47.942;11.804;2022-07-05T06:18:59;2.50;;;0.85;;
21827;SDS011;11076;47.942;11.804;2022-07-05T06:24:01;0.77;;;0.65;;
21827;SDS011;11076;47.942;11.804;2022-07-05T06:29:04;0.80;;;0.80;;
21827;SDS011;11076;47.942;11.804;2022-07-05T06:34:06;5.05;;;1.15;;
21827;SDS011;11076;47.942;11.804;2022-07-05T06:39:09;3.95;;;0.80;;
21827;SDS011;11076;47.942;11.804;2022-07-05T06:44:11;0.70;;;0.70;;
21827;SDS011;11076;47.942;11.804;2022-07-05T06:49:34;0.90;;;0.90;;
21827;SDS011;11076;47.942;11.804;2022-07-05T06:54:36;2.38;;;0.90;;
21827;SDS011;11076;47.942;11.804;2022-07-05T06:59:55;9.55;;;1.02;;
21827;SDS011;11076;47.942;11.804;2022-07-05T07:04:57;1.50;;;1.08;;
21827;SDS011;11076;47.942;11.804;2022-07-05T07:10:16;2.70;;;2.15;;
21827;SDS011;11076;47.942;11.804;2022-07-05T07:15:19;6.15;;;1.52;;
21827;SDS011;11076;47.942;11.804;2022-07-05T07:20:21;3.28;;;1.50;;
21827;SDS011;11076;47.942;11.804;2022-07-05T07:25:24;2.63;;;1.27;;
21827;SDS011;11076;47.942;11.804;2022-07-05T07:30:27;1.75;;;1.65;;
21827;SDS011;11076;47.942;11.804;2022-07-05T07:35:30;1.58;;;1.30;;
21827;SDS011;11076;47.942;11.804;2022-07-05T07:40:32;2.22;;;2.03;;
21827;SDS011;11076;47.942;11.804;2022-07-05T07:45:35;3.08;;;1.73;;
21827;SDS011;11076;47.942;11.804;2022-07-05T07:50:37;4.45;;;2.00;;
21827;SDS011;11076;47.942;11.804;2022-07-05T07:55:40;2.05;;;1.73;;
21827;SDS011;11076;47.942;11.804;2022-07-05T08:00:43;5.47;;;2.05;;
21827;SDS011;11076;47.942;11.804;2022-07-05T08:05:45;9.00;;;2.53;;
21827;SDS011;11076;47.942;11.804;2022-07-05T08:10:47;6.22;;;2.25;;
21827;SDS011;11076;47.942;11.804;2022-07-05T08:15:50;2.28;;;1.52;;
21827;SDS011;11076;47.942;11.804;2022-07-05T08:20:52;5.55;;;1.52;;
21827;SDS011;11076;47.942;11.804;2022-07-05T08:26:13;2.92;;;1.70;;
21827;SDS011;11076;47.942;11.804;2022-07-05T08:31:15;3.22;;;2.03;;
21827;SDS011;11076;47.942;11.804;2022-07-05T08:36:18;2.58;;;1.70;;
21827;SDS011;11076;47.942;11.804;2022-07-05T08:41:21;1.95;;;1.73;;
21827;SDS011;11076;47.942;11.804;2022-07-05T08:46:24;1.38;;;1.20;;
21827;SDS011;11076;47.942;11.804;2022-07-05T08:51:28;3.42;;;1.70;;
21827;SDS011;11076;47.942;11.804;2022-07-05T08:56:31;4.70;;;1.50;;
21827;SDS011;11076;47.942;11.804;2022-07-05T09:01:46;5.80;;;2.30;;
21827;SDS011;11076;47.942;11.804;2022-07-05T09:06:50;3.85;;;1.27;;
21827;SDS011;11076;47.942;11.804;2022-07-05T09:11:57;1.33;;;1.20;;
21827;SDS011;11076;47.942;11.804;2022-07-05T09:17:21;1.60;;;1.17;;
21827;SDS011;11076;47.942;11.804;2022-07-05T09:22:24;4.60;;;1.75;;
21827;SDS011;11076;47.942;11.804;2022-07-05T09:27:26;2.25;;;1.27;;
21827;SDS011;11076;47.942;11.804;2022-07-05T09:32:28;1.90;;;1.13;;
21827;SDS011;11076;47.942;11.804;2022-07-05T09:37:42;5.20;;;1.23;;
21827;SDS011;11076;47.942;11.804;2022-07-05T09:42:48;2.17;;;1.02;;
21827;SDS011;11076;47.942;11.804;2022-07-05T09:47:55;3.53;;;1.20;;
21827;SDS011;11076;47.942;11.804;2022-07-05T09:53:18;2.80;;;1.70;;
21827;SDS011;11076;47.942;11.804;2022-07-05T09:58:25;4.78;;;1.40;;
21827;SDS011;11076;47.942;11.804;2022-07-05T10:03:28;2.60;;;1.60;;
21827;SDS011;11076;47.942;11.804;2022-07-05T10:08:30;3.67;;;1.30;;
21827;SDS011;11076;47.942;11.804;2022-07-05T10:13:33;5.55;;;1.10;;
21827;SDS011;11076;47.942;11.804;2022-07-05T10:18:35;4.57;;;1.42;;
21827;SDS011;11076;47.942;11.804;2022-07-05T10:23:39;5.07;;;1.20;;
21827;SDS011;11076;47.942;11.804;2022-07-05T10:28:47;1.73;;;1.40;;
21827;SDS011;11076;47.942;11.804;2022-07-05T10:33:51;4.15;;;1.67;;
21827;SDS011;11076;47.942;11.804;2022-07-05T10:38:55;3.03;;;1.50;;
21827;SDS011;11076;47.942;11.804;2022-07-05T10:43:58;3.25;;;1.60;;
21827;SDS011;11076;47.942;11.804;2022-07-05T10:49:14;3.63;;;1.30;;
21827;SDS011;11076;47.942;11.804;2022-07-05T10:54:19;4.13;;;1.40;;
21827;SDS011;11076;47.942;11.804;2022-07-05T10:59:22;4.47;;;1.63;;
21827;SDS011;11076;47.942;11.804;2022-07-05T11:04:25;1.67;;;1.52;;
21827;SDS011;11076;47.942;11.804;2022-07-05T11:09:31;1.67;;;1.40;;
21827;SDS011;11076;47.942;11.804;2022-07-05T11:14:35;3.67;;;1.42;;
21827;SDS011;11076;47.942;11.804;2022-07-05T11:20:14;5.13;;;1.15;;
21827;SDS011;11076;47.942;11.804;2022-07-05T11:25:09;1.52;;;1.25;;
21827;SDS011;11076;47.942;11.804;2022-07-05T11:30:22;3.30;;;1.55;;
21827;SDS011;11076;47.942;11.804;2022-07-05T11:35:29;1.88;;;1.00;;
21827;SDS011;11076;47.942;11.804;2022-07-05T11:40:37;2.92;;;1.30;;
21827;SDS011;11076;47.942;11.804;2022-07-05T11:45:39;4.85;;;1.33;;
21827;SDS011;11076;47.942;11.804;2022-07-05T11:50:42;1.23;;;1.08;;
21827;SDS011;11076;47.942;11.804;2022-07-05T11:55:44;2.22;;;1.20;;
21827;SDS011;11076;47.942;11.804;2022-07-05T12:00:52;3.03;;;1.58;;
21827;SDS011;11076;47.942;11.804;2022-07-05T12:05:57;11.27;;;1.80;;
21827;SDS011;11076;47.942;11.804;2022-07-05T12:10:59;10.70;;;1.80;;
21827;SDS011;11076;47.942;11.804;2022-07-05T12:16:21;1.48;;;1.30;;
21827;SDS011;11076;47.942;11.804;2022-07-05T12:21:24;1.55;;;1.30;;
21827;SDS011;11076;47.942;11.804;2022-07-05T12:26:26;4.03;;;1.50;;
21827;SDS011;11076;47.942;11.804;2022-07-05T12:31:30;2.72;;;1.35;;
21827;SDS011;11076;47.942;11.804;2022-07-05T12:36:34;5.85;;;1.30;;
21827;SDS011;11076;47.942;11.804;2022-07-05T12:41:41;3.80;;;1.48;;
21827;SDS011;11076;47.942;11.804;2022-07-05T12:46:45;2.35;;;1.30;;
21827;SDS011;11076;47.942;11.804;2022-07-05T12:51:48;3.38;;;1.42;;
21827;SDS011;11076;47.942;11.804;2022-07-05T12:56:51;2.70;;;1.23;;
21827;SDS011;11076;47.942;11.804;2022-07-05T13:02:35;5.03;;;1.10;;
21827;SDS011;11076;47.942;11.804;2022-07-05T13:07:48;1.85;;;1.25;;
21827;SDS011;11076;47.942;11.804;2022-07-05T13:12:53;3.10;;;1.63;;
21827;SDS011;11076;47.942;11.804;2022-07-05T13:17:56;6.68;;;1.63;;
21827;SDS011;11076;47.942;11.804;2022-07-05T13:22:58;1.52;;;1.42;;
21827;SDS011;11076;47.942;11.804;2022-07-05T13:28:00;5.43;;;1.38;;
21827;SDS011;11076;47.942;11.804;2022-07-05T13:33:03;3.70;;;1.75;;
21827;SDS011;11076;47.942;11.804;2022-07-05T13:38:05;2.95;;;1.40;;
21827;SDS011;11076;47.942;11.804;2022-07-05T13:43:08;3.70;;;1.55;;
21827;SDS011;11076;47.942;11.804;2022-07-05T13:48:10;1.50;;;1.40;;
21827;SDS011;11076;47.942;11.804;2022-07-05T13:53:12;2.00;;;1.25;;
21827;SDS011;11076;47.942;11.804;2022-07-05T13:58:15;4.65;;;1.50;;
21827;SDS011;11076;47.942;11.804;2022-07-05T14:03:18;2.55;;;1.30;;
21827;SDS011;11076;47.942;11.804;2022-07-05T14:08:20;2.10;;;1.50;;
21827;SDS011;11076;47.942;11.804;2022-07-05T14:13:25;4.10;;;1.38;;
21827;SDS011;11076;47.942;11.804;2022-07-05T14:18:28;1.40;;;1.30;;
21827;SDS011;11076;47.942;11.804;2022-07-05T14:23:31;1.13;;;1.08;;
21827;SDS011;11076;47.942;11.804;2022-07-05T14:28:33;1.27;;;1.10;;
21827;SDS011;11076;47.942;11.804;2022-07-05T14:33:35;1.58;;;1.30;;
21827;SDS011;11076;47.942;11.804;2022-07-05T14:38:39;6.53;;;1.23;;
21827;SDS011;11076;47.942;11.804;2022-07-05T14:43:42;1.40;;;1.30;;
21827;SDS011;11076;47.942;11.804;2022-07-05T14:48:44;2.90;;;1.40;;
21827;SDS011;11076;47.942;11.804;2022-07-05T14:53:47;1.25;;;1.15;;
21827;SDS011;11076;47.942;11.804;2022-07-05T14:58:49;4.80;;;1.52;;
21827;SDS011;11076;47.942;11.804;2022-07-05T15:03:52;3.70;;;1.42;;
21827;SDS011;11076;47.942;11.804;2022-07-05T15:08:55;2.85;;;1.20;;
21827;SDS011;11076;47.942;11.804;2022-07-05T15:13:59;4.35;;;1.80;;
21827;SDS011;11076;47.942;11.804;2022-07-05T15:19:07;3.03;;;1.33;;
21827;SDS011;11076;47.942;11.804;2022-07-05T15:24:10;2.03;;;1.30;;
21827;SDS011;11076;47.942;11.804;2022-07-05T15:29:19;3.35;;;1.33;;
21827;SDS011;11076;47.942;11.804;2022-07-05T15:34:22;1.90;;;1.08;;
21827;SDS011;11076;47.942;11.804;2022-07-05T15:39:25;2.45;;;1.20;;
21827;SDS011;11076;47.942;11.804;2022-07-05T15:44:29;2.63;;;1.17;;
21827;SDS011;11076;47.942;11.804;2022-07-05T15:49:31;1.40;;;1.30;;
21827;SDS011;11076;47.942;11.804;2022-07-05T15:54:34;2.17;;;1.30;;
21827;SDS011;11076;47.942;11.804;2022-07-05T15:59:37;1.52;;;1.08;;
21827;SDS011;11076;47.942;11.804;2022-07-05T16:04:40;2.88;;;1.55;;
21827;SDS011;11076;47.942;11.804;2022-07-05T16:09:42;4.72;;;1.42;;
21827;SDS011;11076;47.942;11.804;2022-07-05T16:14:56;1.48;;;1.20;;
21827;SDS011;11076;47.942;11.804;2022-07-05T16:20:03;3.55;;;1.42;;
21827;SDS011;11076;47.942;11.804;2022-07-05T16:25:06;2.13;;;1.23;;
21827;SDS011;11076;47.942;11.804;2022-07-05T16:30:09;3.13;;;1.42;;
21827;SDS011;11076;47.942;11.804;2022-07-05T16:35:12;2.40;;;1.13;;
21827;SDS011;11076;47.942;11.804;2022-07-05T16:40:14;3.10;;;1.30;;
21827;SDS011;11076;47.942;11.804;2022-07-05T16:45:17;4.18;;;1.10;;
21827;SDS011;11076;47.942;11.804;2022-07-05T16:50:19;4.32;;;1.45;;
21827;SDS011;11076;47.942;11.804;2022-07-05T16:55:22;1.27;;;0.98;;
21827;SDS011;11076;47.942;11.804;2022-07-05T17:00:24;1.45;;;1.20;;
21827;SDS011;11076;47.942;11.804;2022-07-05T17:05:26;1.13;;;1.02;;
21827;SDS011;11076;47.942;11.804;2022-07-05T17:10:29;1.13;;;0.73;;
21827;SDS011;11076;47.942;11.804;2022-07-05T17:15:32;7.50;;;1.25;;
21827;SDS011;11076;47.942;11.804;2022-07-05T17:20:34;2.55;;;1.15;;
21827;SDS011;11076;47.942;11.804;2022-07-05T17:25:36;5.30;;;1.13;;
21827;SDS011;11076;47.942;11.804;2022-07-05T17:30:39;2.13;;;1.15;;
21827;SDS011;11076;47.942;11.804;2022-07-05T17:35:41;1.60;;;1.00;;
21827;SDS011;11076;47.942;11.804;2022-07-05T17:40:44;2.70;;;1.13;;
21827;SDS011;11076;47.942;11.804;2022-07-05T17:45:46;5.15;;;1.83;;
21827;SDS011;11076;47.942;11.804;2022-07-05T17:50:49;1.08;;;1.02;;
21827;SDS011;11076;47.942;11.804;2022-07-05T17:55:52;3.17;;;1.13;;
21827;SDS011;11076;47.942;11.804;2022-07-05T18:00:55;3.78;;;1.35;;
21827;SDS011;11076;47.942;11.804;2022-07-05T18:05:58;4.82;;;1.23;;
21827;SDS011;11076;47.942;11.804;2022-07-05T18:11:01;2.92;;;1.10;;
21827;SDS011;11076;47.942;11.804;2022-07-05T18:16:03;4.47;;;1.50;;
21827;SDS011;11076;47.942;11.804;2022-07-05T18:21:06;2.72;;;1.30;;
21827;SDS011;11076;47.942;11.804;2022-07-05T18:26:08;3.33;;;1.60;;
21827;SDS011;11076;47.942;11.804;2022-07-05T18:31:11;5.43;;;1.45;;
21827;SDS011;11076;47.942;11.804;2022-07-05T18:36:13;4.68;;;1.50;;
21827;SDS011;11076;47.942;11.804;2022-07-05T18:41:16;6.65;;;1.30;;
21827;SDS011;11076;47.942;11.804;2022-07-05T18:46:19;1.42;;;1.00;;
21827;SDS011;11076;47.942;11.804;2022-07-05T18:51:21;3.45;;;1.08;;
21827;SDS011;11076;47.942;11.804;2022-07-05T18:56:24;3.25;;;1.10;;
21827;SDS011;11076;47.942;11.804;2022-07-05T19:01:27;0.98;;;0.98;;
21827;SDS011;11076;47.942;11.804;2022-07-05T19:06:29;1.20;;;1.10;;
21827;SDS011;11076;47.942;11.804;2022-07-05T19:11:50;3.38;;;1.17;;
21827;SDS011;11076;47.942;11.804;2022-07-05T19:17:11;1.65;;;1.10;;
21827;SDS011;11076;47.942;11.804;2022-07-05T19:22:14;1.48;;;1.08;;
21827;SDS011;11076;47.942;11.804;2022-07-05T19:27:16;3.97;;;1.33;;
21827;SDS011;11076;47.942;11.804;2022-07-05T19:32:19;3.50;;;1.17;;
21827;SDS011;11076;47.942;11.804;2022-07-05T19:37:22;2.08;;;1.10;;
21827;SDS011;11076;47.942;11.804;2022-07-05T19:42:24;1.52;;;1.30;;
21827;SDS011;11076;47.942;11.804;2022-07-05T19:47:28;3.50;;;1.27;;
21827;SDS011;11076;47.942;11.804;2022-07-05T19:52:30;6.07;;;1.20;;
21827;SDS011;11076;47.942;11.804;2022-07-05T19:57:33;1.90;;;1.30;;
21827;SDS011;11076;47.942;11.804;2022-07-05T20:02:36;2.88;;;1.50;;
21827;SDS011;11076;47.942;11.804;2022-07-05T20:07:38;1.70;;;1.60;;
21827;SDS011;11076;47.942;11.804;2022-07-05T20:12:41;1.35;;;1.25;;
21827;SDS011;11076;47.942;11.804;2022-07-05T20:17:43;3.85;;;1.20;;
21827;SDS011;11076;47.942;11.804;2022-07-05T20:22:45;1.58;;;1.48;;
21827;SDS011;11076;47.942;11.804;2022-07-05T20:27:48;1.88;;;1.60;;
21827;SDS011;11076;47.942;11.804;2022-07-05T20:32:50;3.28;;;1.70;;
21827;SDS011;11076;47.942;11.804;2022-07-05T20:37:53;2.80;;;1.42;;
21827;SDS011;11076;47.942;11.804;2022-07-05T20:42:56;3.17;;;1.52;;
21827;SDS011;11076;47.942;11.804;2022-07-05T20:47:58;3.45;;;1.55;;
21827;SDS011;11076;47.942;11.804;2022-07-05T20:53:00;1.63;;;1.52;;
21827;SDS011;11076;47.942;11.804;2022-07-05T20:58:03;4.90;;;1.88;;
21827;SDS011;11076;47.942;11.804;2022-07-05T21:03:05;1.90;;;1.67;;
21827;SDS011;11076;47.942;11.804;2022-07-05T21:08:08;2.72;;;1.60;;
21827;SDS011;11076;47.942;11.804;2022-07-05T21:13:10;1.75;;;1.65;;
21827;SDS011;11076;47.942;11.804;2022-07-05T21:18:13;5.20;;;2.03;;
21827;SDS011;11076;47.942;11.804;2022-07-05T21:23:15;2.25;;;1.70;;
21827;SDS011;11076;47.942;11.804;2022-07-05T21:28:17;8.32;;;1.70;;
21827;SDS011;11076;47.942;11.804;2022-07-05T21:33:20;4.72;;;2.08;;
21827;SDS011;11076;47.942;11.804;2022-07-05T21:38:26;1.88;;;1.70;;
21827;SDS011;11076;47.942;11.804;2022-07-05T21:43:29;3.15;;;1.95;;
21827;SDS011;11076;47.942;11.804;2022-07-05T21:48:31;3.05;;;1.80;;
21827;SDS011;11076;47.942;11.804;2022-07-05T21:53:33;2.10;;;1.90;;
21827;SDS011;11076;47.942;11.804;2022-07-05T21:58:36;2.38;;;1.75;;
21827;SDS011;11076;47.942;11.804;2022-07-05T22:03:57;4.57;;;2.10;;
21827;SDS011;11076;47.942;11.804;2022-07-05T22:09:18;8.50;;;2.50;;
21827;SDS011;11076;47.942;11.804;2022-07-05T22:14:21;3.70;;;2.20;;
21827;SDS011;11076;47.942;11.804;2022-07-05T22:19:24;2.30;;;2.08;;
21827;SDS011;11076;47.942;11.804;2022-07-05T22:24:26;2.97;;;1.98;;
21827;SDS011;11076;47.942;11.804;2022-07-05T22:29:29;5.35;;;1.90;;
21827;SDS011;11076;47.942;11.804;2022-07-05T22:34:31;4.03;;;2.10;;
21827;SDS011;11076;47.942;11.804;2022-07-05T22:39:34;8.68;;;2.88;;
21827;SDS011;11076;47.942;11.804;2022-07-05T22:44:36;4.07;;;1.90;;
21827;SDS011;11076;47.942;11.804;2022-07-05T22:49:38;6.18;;;2.20;;
21827;SDS011;11076;47.942;11.804;2022-07-05T22:54:41;9.02;;;2.10;;
21827;SDS011;11076;47.942;11.804;2022-07-05T22:59:43;5.00;;;1.92;;
21827;SDS011;11076;47.942;11.804;2022-07-05T23:04:46;2.70;;;2.30;;
21827;SDS011;11076;47.942;11.804;2022-07-05T23:09:48;4.65;;;2.50;;
21827;SDS011;11076;47.942;11.804;2022-07-05T23:14:50;3.92;;;2.10;;
21827;SDS011;11076;47.942;11.804;2022-07-05T23:19:53;8.38;;;2.38;;
21827;SDS011;11076;47.942;11.804;2022-07-05T23:24:55;5.95;;;2.38;;
21827;SDS011;11076;47.942;11.804;2022-07-05T23:29:58;3.67;;;2.15;;
21827;SDS011;11076;47.942;11.804;2022-07-05T23:35:02;4.35;;;1.95;;
21827;SDS011;11076;47.942;11.804;2022-07-05T23:40:05;5.65;;;1.83;;
21827;SDS011;11076;47.942;11.804;2022-07-05T23:45:08;8.48;;;1.83;;
21827;SDS011;11076;47.942;11.804;2022-07-05T23:50:11;8.02;;;2.35;;
21827;SDS011;11076;47.942;11.804;2022-07-05T23:55:13;2.28;;;1.95;;
